createdAt,value
2023-04-15T00:00:49.740Z,9.74
2023-04-15T00:01:49.810Z,9.76
2023-04-15T00:02:49.884Z,9.69
2023-04-15T00:03:49.845Z,9.73
2023-04-15T00:04:50.002Z,9.81
2023-04-15T00:05:49.815Z,9.82
2023-04-15T00:06:49.802Z,9.84
2023-04-15T00:07:49.874Z,9.76
2023-04-15T00:08:49.855Z,9.77
2023-04-15T00:09:49.832Z,9.76
2023-04-15T00:10:49.897Z,9.73
2023-04-15T00:11:49.967Z,9.72
2023-04-15T00:12:49.991Z,9.73
2023-04-15T00:13:49.963Z,9.76
2023-04-15T00:14:49.955Z,9.80
2023-04-15T00:15:50.005Z,9.77
2023-04-15T00:16:50.134Z,9.76
2023-04-15T00:17:50.134Z,9.74
2023-04-15T00:18:50.113Z,9.72
2023-04-15T00:19:50.156Z,9.70
2023-04-15T00:20:50.235Z,9.76
2023-04-15T00:21:50.335Z,9.72
2023-04-15T00:22:50.345Z,9.70
2023-04-15T00:23:50.409Z,9.76
2023-04-15T00:24:50.456Z,9.77
2023-04-15T00:25:50.519Z,9.77
2023-04-15T00:26:50.574Z,9.72
2023-04-15T00:27:50.652Z,9.64
2023-04-15T00:28:50.722Z,9.66
2023-04-15T00:29:50.694Z,9.58
2023-04-15T00:30:50.819Z,9.63
2023-04-15T00:31:50.796Z,9.62
2023-04-15T00:32:50.969Z,9.59
2023-04-15T00:33:50.853Z,9.62
2023-04-15T00:34:50.923Z,9.58
2023-04-15T00:35:50.999Z,9.52
2023-04-15T00:36:51.049Z,9.54
2023-04-15T00:37:51.036Z,9.52
2023-04-15T00:38:51.012Z,9.49
2023-04-15T00:39:51.080Z,9.59
2023-04-15T00:40:51.153Z,9.69
2023-04-15T00:41:51.236Z,9.70
2023-04-15T00:42:51.222Z,9.74
2023-04-15T00:43:51.213Z,9.70
2023-04-15T00:44:51.307Z,9.74
2023-04-15T00:45:51.363Z,9.70
2023-04-15T00:46:51.326Z,9.67
2023-04-15T00:47:51.331Z,9.56
2023-04-15T00:48:51.388Z,9.55
2023-04-15T00:49:51.467Z,9.54
2023-04-15T00:50:51.458Z,9.54
2023-04-15T00:51:51.538Z,9.49
2023-04-15T00:52:51.522Z,9.44
2023-04-15T00:53:51.604Z,9.30
2023-04-15T00:54:51.691Z,9.30
2023-04-15T00:55:51.680Z,9.26
2023-04-15T00:56:51.681Z,9.24
2023-04-15T00:57:51.748Z,9.29
2023-04-15T00:58:51.746Z,9.26
2023-04-15T00:59:51.879Z,9.21
2023-04-15T01:00:51.827Z,9.22
2023-04-15T01:01:52.040Z,9.22
2023-04-15T01:02:51.939Z,9.27
2023-04-15T01:03:52.081Z,9.19
2023-04-15T01:04:51.936Z,9.12
2023-04-15T01:05:51.995Z,9.08
2023-04-15T01:06:52.012Z,9.13
2023-04-15T01:07:51.979Z,9.22
2023-04-15T01:08:51.981Z,9.22
2023-04-15T01:09:52.016Z,9.33
2023-04-15T01:10:51.999Z,9.39
2023-04-15T01:11:52.036Z,9.42
2023-04-15T01:12:52.075Z,9.37
2023-04-15T01:13:52.081Z,9.24
2023-04-15T01:14:52.102Z,9.39
2023-04-15T01:15:52.154Z,9.45
2023-04-15T01:16:52.160Z,9.48
2023-04-15T01:17:52.188Z,9.37
2023-04-15T01:18:52.181Z,9.44
2023-04-15T01:19:52.182Z,9.52
2023-04-15T01:20:52.169Z,9.58
2023-04-15T01:21:52.253Z,9.66
2023-04-15T01:22:52.263Z,9.67
2023-04-15T01:23:52.272Z,9.81
2023-04-15T01:24:52.291Z,9.84
2023-04-15T01:25:52.278Z,9.77
2023-04-15T01:26:52.367Z,9.70
2023-04-15T01:27:52.367Z,9.74
2023-04-15T01:28:52.346Z,9.87
2023-04-15T01:29:52.366Z,9.90
2023-04-15T01:30:52.364Z,9.90
2023-04-15T01:31:52.457Z,9.95
2023-04-15T01:32:52.401Z,10.00
2023-04-15T01:33:52.387Z,9.92
2023-04-15T01:34:52.398Z,9.94
2023-04-15T01:35:52.413Z,10.02
2023-04-15T01:36:52.470Z,10.02
2023-04-15T01:37:52.502Z,9.97
2023-04-15T01:38:52.492Z,9.88
2023-04-15T01:39:52.498Z,9.82
2023-04-15T01:40:52.531Z,9.90
2023-04-15T01:41:52.532Z,9.94
2023-04-15T01:42:52.536Z,9.94
2023-04-15T01:43:52.554Z,9.92
2023-04-15T01:44:52.564Z,10.00
2023-04-15T01:45:52.608Z,10.05
2023-04-15T01:46:52.709Z,10.06
2023-04-15T01:47:52.762Z,10.09
2023-04-15T01:48:52.648Z,10.07
2023-04-15T01:49:52.697Z,10.05
2023-04-15T01:50:52.725Z,10.05
2023-04-15T01:51:52.775Z,10.05
2023-04-15T01:52:52.817Z,10.03
2023-04-15T01:53:52.849Z,10.05
2023-04-15T01:54:52.885Z,10.03
2023-04-15T01:55:52.928Z,10.03
2023-04-15T01:56:52.967Z,10.05
2023-04-15T01:57:53.021Z,10.03
2023-04-15T01:58:53.067Z,10.05
2023-04-15T01:59:53.091Z,10.03
2023-04-15T02:00:53.145Z,10.03
2023-04-15T02:01:53.266Z,9.99
2023-04-15T02:02:53.250Z,10.02
2023-04-15T02:03:53.274Z,9.85
2023-04-15T02:04:53.238Z,9.90
2023-04-15T02:05:53.244Z,9.95
2023-04-15T02:06:53.262Z,9.97
2023-04-15T02:07:53.243Z,9.94
2023-04-15T02:08:53.226Z,9.92
2023-04-15T02:09:53.300Z,9.88
2023-04-15T02:10:53.294Z,9.99
2023-04-15T02:11:53.295Z,9.97
2023-04-15T02:12:53.295Z,10.00
2023-04-15T02:13:53.324Z,10.05
2023-04-15T02:14:53.354Z,10.05
2023-04-15T02:15:53.387Z,10.00
2023-04-15T02:16:53.503Z,10.03
2023-04-15T02:17:53.520Z,9.97
2023-04-15T02:18:53.493Z,9.99
2023-04-15T02:19:53.526Z,9.97
2023-04-15T02:20:53.548Z,10.02
2023-04-15T02:21:53.575Z,10.02
2023-04-15T02:22:53.589Z,10.02
2023-04-15T02:23:54.106Z,10.00
2023-04-15T02:24:53.619Z,9.95
2023-04-15T02:25:54.325Z,9.99
2023-04-15T02:26:53.615Z,10.00
2023-04-15T02:27:53.628Z,10.03
2023-04-15T02:28:53.700Z,10.05
2023-04-15T02:29:53.706Z,10.00
2023-04-15T02:30:53.766Z,9.97
2023-04-15T02:31:53.769Z,10.00
2023-04-15T02:32:53.781Z,9.94
2023-04-15T02:33:53.726Z,9.97
2023-04-15T02:34:53.753Z,9.99
2023-04-15T02:35:53.747Z,9.94
2023-04-15T02:36:53.828Z,9.94
2023-04-15T02:37:53.835Z,9.95
2023-04-15T02:38:53.833Z,9.97
2023-04-15T02:39:53.839Z,9.94
2023-04-15T02:40:53.839Z,9.94
2023-04-15T02:41:53.841Z,9.97
2023-04-15T02:42:53.843Z,9.94
2023-04-15T02:43:53.839Z,9.87
2023-04-15T02:44:53.831Z,9.82
2023-04-15T02:45:53.881Z,9.87
2023-04-15T02:46:53.868Z,9.88
2023-04-15T02:47:53.920Z,9.82
2023-04-15T02:48:53.899Z,9.72
2023-04-15T02:49:53.893Z,9.81
2023-04-15T02:50:53.899Z,9.87
2023-04-15T02:51:53.917Z,9.88
2023-04-15T02:52:53.928Z,9.92
2023-04-15T02:53:53.913Z,9.91
2023-04-15T02:54:53.910Z,9.94
2023-04-15T02:55:53.934Z,9.90
2023-04-15T02:56:53.944Z,9.94
2023-04-15T02:57:53.946Z,9.91
2023-04-15T02:58:53.949Z,9.92
2023-04-15T02:59:53.950Z,9.88
2023-04-15T03:00:53.936Z,9.90
2023-04-15T03:01:53.988Z,9.87
2023-04-15T03:02:54.043Z,9.82
2023-04-15T03:03:53.989Z,9.81
2023-04-15T03:04:54.004Z,9.84
2023-04-15T03:05:53.993Z,9.73
2023-04-15T03:06:53.986Z,9.70
2023-04-15T03:07:53.987Z,9.70
2023-04-15T03:08:54.013Z,9.74
2023-04-15T03:09:54.008Z,9.72
2023-04-15T03:10:53.992Z,9.77
2023-04-15T03:11:54.002Z,9.88
2023-04-15T03:12:54.004Z,9.87
2023-04-15T03:13:54.013Z,9.82
2023-04-15T03:14:54.012Z,9.82
2023-04-15T03:15:54.054Z,9.85
2023-04-15T03:16:54.038Z,9.69
2023-04-15T03:17:54.077Z,9.67
2023-04-15T03:18:54.051Z,9.70
2023-04-15T03:19:54.066Z,9.69
2023-04-15T03:20:54.043Z,9.66
2023-04-15T03:21:54.048Z,9.62
2023-04-15T03:22:54.013Z,9.74
2023-04-15T03:23:54.097Z,9.82
2023-04-15T03:24:54.126Z,9.88
2023-04-15T03:25:54.118Z,9.95
2023-04-15T03:26:54.170Z,10.00
2023-04-15T03:27:54.208Z,10.02
2023-04-15T03:28:54.243Z,10.02
2023-04-15T03:29:54.267Z,9.94
2023-04-15T03:30:54.289Z,9.82
2023-04-15T03:31:54.267Z,9.90
2023-04-15T03:32:54.276Z,9.95
2023-04-15T03:33:54.276Z,9.92
2023-04-15T03:34:54.269Z,9.88
2023-04-15T03:35:54.284Z,9.92
2023-04-15T03:36:54.293Z,9.95
2023-04-15T03:37:54.306Z,9.82
2023-04-15T03:38:54.314Z,9.81
2023-04-15T03:39:54.307Z,9.84
2023-04-15T03:40:54.309Z,9.77
2023-04-15T03:41:54.325Z,9.80
2023-04-15T03:42:54.311Z,9.73
2023-04-15T03:43:54.306Z,9.73
2023-04-15T03:44:54.293Z,9.80
2023-04-15T03:45:54.368Z,9.87
2023-04-15T03:46:54.424Z,9.84
2023-04-15T03:47:54.461Z,9.84
2023-04-15T03:48:54.469Z,9.73
2023-04-15T03:49:54.469Z,9.69
2023-04-15T03:50:54.471Z,9.67
2023-04-15T03:51:54.459Z,9.62
2023-04-15T03:52:54.531Z,9.63
2023-04-15T03:53:54.532Z,9.74
2023-04-15T03:54:54.598Z,9.73
2023-04-15T03:55:54.601Z,9.66
2023-04-15T03:56:54.581Z,9.54
2023-04-15T03:57:54.586Z,9.62
2023-04-15T03:58:54.572Z,9.59
2023-04-15T03:59:54.584Z,9.56
2023-04-15T04:00:54.573Z,9.62
2023-04-15T04:01:54.636Z,9.58
2023-04-15T04:02:54.682Z,9.59
2023-04-15T04:03:54.731Z,9.66
2023-04-15T04:04:54.722Z,9.54
2023-04-15T04:05:54.690Z,9.49
2023-04-15T04:06:54.694Z,9.52
2023-04-15T04:07:54.677Z,9.59
2023-04-15T04:08:54.682Z,9.69
2023-04-15T04:09:54.725Z,9.73
2023-04-15T04:10:54.733Z,9.73
2023-04-15T04:11:54.758Z,9.66
2023-04-15T04:12:54.789Z,9.54
2023-04-15T04:13:54.820Z,9.48
2023-04-15T04:14:54.839Z,9.45
2023-04-15T04:15:54.863Z,9.49
2023-04-15T04:16:54.902Z,9.54
2023-04-15T04:17:54.925Z,9.49
2023-04-15T04:18:54.910Z,9.52
2023-04-15T04:19:54.918Z,9.64
2023-04-15T04:20:54.922Z,9.66
2023-04-15T04:21:54.925Z,9.66
2023-04-15T04:22:54.948Z,9.62
2023-04-15T04:23:54.961Z,9.62
2023-04-15T04:24:54.975Z,9.59
2023-04-15T04:25:54.986Z,9.64
2023-04-15T04:26:54.984Z,9.64
2023-04-15T04:27:55.016Z,9.67
2023-04-15T04:28:55.025Z,9.59
2023-04-15T04:29:55.051Z,9.49
2023-04-15T04:30:55.082Z,9.45
2023-04-15T04:31:55.166Z,9.49
2023-04-15T04:32:55.240Z,9.42
2023-04-15T04:33:55.212Z,9.42
2023-04-15T04:34:55.207Z,9.39
2023-04-15T04:35:55.203Z,9.37
2023-04-15T04:36:55.221Z,9.58
2023-04-15T04:37:55.206Z,9.70
2023-04-15T04:38:55.216Z,9.76
2023-04-15T04:39:55.211Z,9.76
2023-04-15T04:40:55.223Z,9.72
2023-04-15T04:41:55.224Z,9.87
2023-04-15T04:42:55.242Z,9.81
2023-04-15T04:43:55.257Z,9.88
2023-04-15T04:44:55.301Z,9.92
2023-04-15T04:45:55.347Z,9.82
2023-04-15T04:46:55.346Z,9.74
2023-04-15T04:47:55.407Z,9.56
2023-04-15T04:48:55.430Z,9.63
2023-04-15T04:49:55.478Z,9.84
2023-04-15T04:50:55.521Z,9.84
2023-04-15T04:51:55.605Z,9.85
2023-04-15T04:52:55.572Z,9.80
2023-04-15T04:53:55.640Z,9.77
2023-04-15T04:54:55.697Z,9.80
2023-04-15T04:55:55.753Z,9.88
2023-04-15T04:56:55.803Z,9.91
2023-04-15T04:57:55.885Z,9.88
2023-04-15T04:58:55.875Z,9.92
2023-04-15T04:59:55.879Z,10.05
2023-04-15T05:00:56.005Z,10.15
2023-04-15T05:01:56.055Z,10.15
2023-04-15T05:02:56.170Z,10.23
2023-04-15T05:03:56.165Z,10.33
2023-04-15T05:04:56.124Z,10.41
2023-04-15T05:05:56.159Z,10.24
2023-04-15T05:06:56.176Z,10.21
2023-04-15T05:07:56.248Z,10.20
2023-04-15T05:08:56.257Z,10.17
2023-04-15T05:09:56.248Z,9.90
2023-04-15T05:10:56.244Z,9.80
2023-04-15T05:11:56.288Z,9.84
2023-04-15T05:12:56.297Z,9.80
2023-04-15T05:13:56.326Z,9.73
2023-04-15T05:14:56.344Z,9.76
2023-04-15T05:15:56.421Z,9.69
2023-04-15T05:16:56.399Z,9.72
2023-04-15T05:17:56.465Z,9.84
2023-04-15T05:18:56.422Z,9.85
2023-04-15T05:19:56.422Z,9.88
2023-04-15T05:20:56.428Z,9.92
2023-04-15T05:21:56.470Z,9.88
2023-04-15T05:22:56.550Z,9.85
2023-04-15T05:23:56.568Z,9.76
2023-04-15T05:24:56.622Z,9.70
2023-04-15T05:25:56.651Z,9.69
2023-04-15T05:26:56.697Z,9.74
2023-04-15T05:27:56.755Z,9.67
2023-04-15T05:28:56.790Z,9.77
2023-04-15T05:29:56.837Z,9.90
2023-04-15T05:30:56.861Z,9.99
2023-04-15T05:31:56.842Z,10.12
2023-04-15T05:32:56.956Z,10.18
2023-04-15T05:33:56.866Z,10.09
2023-04-15T05:34:56.896Z,10.20
2023-04-15T05:35:56.953Z,10.23
2023-04-15T05:36:56.985Z,10.28
2023-04-15T05:37:57.073Z,10.07
2023-04-15T05:38:57.098Z,9.99
2023-04-15T05:39:57.127Z,9.88
2023-04-15T05:40:57.201Z,10.07
2023-04-15T05:41:57.189Z,10.31
2023-04-15T05:42:57.202Z,10.34
2023-04-15T05:43:57.257Z,10.28
2023-04-15T05:44:57.239Z,10.45
2023-04-15T05:45:57.302Z,10.61
2023-04-15T05:46:57.243Z,10.75
2023-04-15T05:47:57.267Z,10.83
2023-04-15T05:48:57.257Z,11.04
2023-04-15T05:49:57.287Z,10.92
2023-04-15T05:50:57.294Z,10.83
2023-04-15T05:51:57.285Z,10.75
2023-04-15T05:52:57.282Z,10.64
2023-04-15T05:53:57.283Z,10.68
2023-04-15T05:54:57.309Z,10.57
2023-04-15T05:55:57.343Z,10.49
2023-04-15T05:56:57.357Z,10.64
2023-04-15T05:57:57.429Z,10.55
2023-04-15T05:58:57.482Z,10.58
2023-04-15T05:59:57.512Z,10.69
2023-04-15T06:00:57.539Z,10.89
2023-04-15T06:01:57.562Z,10.87
2023-04-15T06:02:57.644Z,10.90
2023-04-15T06:03:57.797Z,10.89
2023-04-15T06:04:57.741Z,11.01
2023-04-15T06:05:57.787Z,10.75
2023-04-15T06:06:57.783Z,10.76
2023-04-15T06:07:57.785Z,10.84
2023-04-15T06:08:57.759Z,10.95
2023-04-15T06:09:57.771Z,11.02
2023-04-15T06:10:57.833Z,10.75
2023-04-15T06:11:57.910Z,10.27
2023-04-15T06:12:57.917Z,10.24
2023-04-15T06:13:57.942Z,10.38
2023-04-15T06:14:59.925Z,10.61
2023-04-15T06:15:58.017Z,10.69
2023-04-15T06:16:57.983Z,10.64
2023-04-15T06:17:58.061Z,10.46
2023-04-15T06:18:58.034Z,10.20
2023-04-15T06:19:58.100Z,9.95
2023-04-15T06:20:58.076Z,10.05
2023-04-15T06:21:58.144Z,10.25
2023-04-15T06:22:58.213Z,10.17
2023-04-15T06:23:58.237Z,10.15
2023-04-15T06:24:58.268Z,10.30
2023-04-15T06:25:58.301Z,10.13
2023-04-15T06:26:58.334Z,10.21
2023-04-15T06:27:58.312Z,10.24
2023-04-15T06:28:58.435Z,10.09
2023-04-15T06:29:58.417Z,10.27
2023-04-15T06:30:58.438Z,10.51
2023-04-15T06:31:58.525Z,10.64
2023-04-15T06:32:58.501Z,10.79
2023-04-15T06:33:58.498Z,10.82
2023-04-15T06:34:58.549Z,10.86
2023-04-15T06:35:58.613Z,10.90
2023-04-15T06:36:58.636Z,10.95
2023-04-15T06:37:58.654Z,11.04
2023-04-15T06:38:58.643Z,11.15
2023-04-15T06:39:58.660Z,11.07
2023-04-15T06:40:58.717Z,10.80
2023-04-15T06:41:58.726Z,10.42
2023-04-15T06:42:58.737Z,10.15
2023-04-15T06:43:58.743Z,10.21
2023-04-15T06:44:58.800Z,10.25
2023-04-15T06:45:58.874Z,10.27
2023-04-15T06:46:58.880Z,10.15
2023-04-15T06:47:58.937Z,9.94
2023-04-15T06:48:58.993Z,9.95
2023-04-15T06:49:59.004Z,9.82
2023-04-15T06:50:59.009Z,9.67
2023-04-15T06:51:59.003Z,9.48
2023-04-15T06:52:59.025Z,9.56
2023-04-15T06:53:59.030Z,9.81
2023-04-15T06:54:59.063Z,9.70
2023-04-15T06:55:59.070Z,9.77
2023-04-15T06:56:59.075Z,9.74
2023-04-15T06:57:59.077Z,9.72
2023-04-15T06:58:59.152Z,9.69
2023-04-15T06:59:59.117Z,9.94
2023-04-15T07:00:59.159Z,10.07
2023-04-15T07:01:59.165Z,9.94
2023-04-15T07:02:59.179Z,10.12
2023-04-15T07:03:59.212Z,10.20
2023-04-15T07:04:59.310Z,10.31
2023-04-15T07:05:59.299Z,10.09
2023-04-15T07:06:59.263Z,10.23
2023-04-15T07:07:59.331Z,10.20
2023-04-15T07:08:59.341Z,10.48
2023-04-15T07:09:59.367Z,10.30
2023-04-15T07:10:59.498Z,10.15
2023-04-15T07:11:59.449Z,10.09
2023-04-15T07:12:59.507Z,9.95
2023-04-15T07:13:59.542Z,9.90
2023-04-15T07:14:59.540Z,9.85
2023-04-15T07:15:59.552Z,9.91
2023-04-15T07:16:59.595Z,9.37
2023-04-15T07:17:59.573Z,9.48
2023-04-15T07:18:59.901Z,9.58
2023-04-15T07:19:59.558Z,9.56
2023-04-15T07:20:59.546Z,9.64
2023-04-15T07:21:59.522Z,9.62
2023-04-15T07:22:59.619Z,9.80
2023-04-15T07:23:59.625Z,9.90
2023-04-15T07:24:59.692Z,10.07
2023-04-15T07:25:59.718Z,10.07
2023-04-15T07:27:01.222Z,10.17
2023-04-15T07:27:59.815Z,10.24
2023-04-15T07:29:00.164Z,10.25
2023-04-15T07:29:59.878Z,10.21
2023-04-15T07:30:59.945Z,10.23
2023-04-15T07:31:59.920Z,10.07
2023-04-15T07:32:59.966Z,10.09
2023-04-15T07:33:59.951Z,10.07
2023-04-15T07:34:59.942Z,10.15
2023-04-15T07:36:00.007Z,10.24
2023-04-15T07:37:00.049Z,10.20
2023-04-15T07:38:00.090Z,10.00
2023-04-15T07:39:00.447Z,9.97
2023-04-15T07:40:00.181Z,9.73
2023-04-15T07:41:00.150Z,9.64
2023-04-15T07:42:00.182Z,9.92
2023-04-15T07:43:00.190Z,10.07
2023-04-15T07:44:00.229Z,10.07
2023-04-15T07:45:00.295Z,10.20
2023-04-15T07:46:00.423Z,10.38
2023-04-15T07:47:00.343Z,10.46
2023-04-15T07:48:00.399Z,10.18
2023-04-15T07:49:00.929Z,10.30
2023-04-15T07:50:00.476Z,10.33
2023-04-15T07:51:00.547Z,10.30
2023-04-15T07:52:00.608Z,10.07
2023-04-15T07:53:00.650Z,10.38
2023-04-15T07:54:00.721Z,10.43
2023-04-15T07:55:00.779Z,10.46
2023-04-15T07:56:00.835Z,10.58
2023-04-15T07:57:00.833Z,10.41
2023-04-15T07:58:00.872Z,10.41
2023-04-15T07:59:01.218Z,10.72
2023-04-15T08:00:00.974Z,10.76
2023-04-15T08:01:01.028Z,10.82
2023-04-15T08:02:01.139Z,10.72
2023-04-15T08:03:01.194Z,10.72
2023-04-15T08:04:01.234Z,10.61
2023-04-15T08:05:01.192Z,10.36
2023-04-15T08:06:01.215Z,10.38
2023-04-15T08:07:01.244Z,10.51
2023-04-15T08:08:01.273Z,10.57
2023-04-15T08:09:01.513Z,10.77
2023-04-15T08:10:01.318Z,10.97
2023-04-15T08:11:01.343Z,11.01
2023-04-15T08:12:01.361Z,11.08
2023-04-15T08:13:01.536Z,11.04
2023-04-15T08:14:01.483Z,10.90
2023-04-15T08:15:01.516Z,10.80
2023-04-15T08:16:01.577Z,10.55
2023-04-15T08:17:01.613Z,10.58
2023-04-15T08:18:01.639Z,10.83
2023-04-15T08:19:01.846Z,10.87
2023-04-15T08:20:01.727Z,10.89
2023-04-15T08:21:01.783Z,10.98
2023-04-15T08:22:01.838Z,11.18
2023-04-15T08:23:01.891Z,10.97
2023-04-15T08:24:01.973Z,10.94
2023-04-15T08:25:01.960Z,11.12
2023-04-15T08:26:01.942Z,11.13
2023-04-15T08:27:01.977Z,10.97
2023-04-15T08:28:01.976Z,10.84
2023-04-15T08:29:02.540Z,10.77
2023-04-15T08:30:04.702Z,10.71
2023-04-15T08:31:02.012Z,10.87
2023-04-15T08:32:02.059Z,10.89
2023-04-15T08:33:02.242Z,10.72
2023-04-15T08:34:02.144Z,10.75
2023-04-15T08:35:02.875Z,10.92
2023-04-15T08:36:02.110Z,11.13
2023-04-15T08:37:02.407Z,11.01
2023-04-15T08:38:02.209Z,11.05
2023-04-15T08:39:02.422Z,10.87
2023-04-15T08:40:02.315Z,10.90
2023-04-15T08:41:02.348Z,10.92
2023-04-15T08:42:02.410Z,10.59
2023-04-15T08:43:02.377Z,10.69
2023-04-15T08:44:02.589Z,11.02
2023-04-15T08:45:02.719Z,10.89
2023-04-15T08:46:02.571Z,10.79
2023-04-15T08:47:02.840Z,10.90
2023-04-15T08:48:02.682Z,10.71
2023-04-15T08:49:02.830Z,10.72
2023-04-15T08:50:02.645Z,10.83
2023-04-15T08:51:02.670Z,10.87
2023-04-15T08:52:02.716Z,10.86
2023-04-15T08:53:02.771Z,11.01
2023-04-15T08:54:02.811Z,11.05
2023-04-15T08:55:02.857Z,10.95
2023-04-15T08:56:02.892Z,11.19
2023-04-15T08:57:03.057Z,11.23
2023-04-15T08:58:02.935Z,11.19
2023-04-15T08:59:03.171Z,10.87
2023-04-15T09:00:04.793Z,10.95
2023-04-15T09:01:03.059Z,10.87
2023-04-15T09:02:03.117Z,10.76
2023-04-15T09:03:03.250Z,10.71
2023-04-15T09:04:03.196Z,10.76
2023-04-15T09:05:03.154Z,10.76
2023-04-15T09:06:03.208Z,11.00
2023-04-15T09:07:03.233Z,10.82
2023-04-15T09:08:03.299Z,10.76
2023-04-15T09:09:03.586Z,10.69
2023-04-15T09:10:03.399Z,10.53
2023-04-15T09:11:03.474Z,10.79
2023-04-15T09:12:03.552Z,10.86
2023-04-15T09:13:03.508Z,10.79
2023-04-15T09:14:04.449Z,10.69
2023-04-15T09:15:03.537Z,10.80
2023-04-15T09:16:03.606Z,10.62
2023-04-15T09:17:03.676Z,10.58
2023-04-15T09:18:03.622Z,10.46
2023-04-15T09:19:03.755Z,10.23
2023-04-15T09:20:03.683Z,10.28
2023-04-15T09:21:03.736Z,10.62
2023-04-15T09:22:03.776Z,10.53
2023-04-15T09:23:03.824Z,10.39
2023-04-15T09:24:04.130Z,10.49
2023-04-15T09:25:03.921Z,10.53
2023-04-15T09:26:04.006Z,10.64
2023-04-15T09:27:04.021Z,10.75
2023-04-15T09:28:04.075Z,10.92
2023-04-15T09:29:04.021Z,10.55
2023-04-15T09:30:04.024Z,10.48
2023-04-15T09:31:04.267Z,10.67
2023-04-15T09:32:04.923Z,10.79
2023-04-15T09:33:04.189Z,10.92
2023-04-15T09:34:04.377Z,11.08
2023-04-15T09:35:04.216Z,11.33
2023-04-15T09:36:04.247Z,11.35
2023-04-15T09:37:04.264Z,10.94
2023-04-15T09:38:04.240Z,10.71
2023-04-15T09:39:04.292Z,10.64
2023-04-15T09:40:05.008Z,10.71
2023-04-15T09:41:05.350Z,10.67
2023-04-15T09:42:04.412Z,10.69
2023-04-15T09:43:04.421Z,10.62
2023-04-15T09:44:04.412Z,10.76
2023-04-15T09:45:04.431Z,10.61
2023-04-15T09:46:04.489Z,10.55
2023-04-15T09:47:04.441Z,10.62
2023-04-15T09:48:04.525Z,10.71
2023-04-15T09:49:04.486Z,10.83
2023-04-15T09:50:04.512Z,10.90
2023-04-15T09:51:04.543Z,11.04
2023-04-15T09:52:06.189Z,10.87
2023-04-15T09:53:04.594Z,10.86
2023-04-15T09:54:04.605Z,10.89
2023-04-15T09:55:04.666Z,10.76
2023-04-15T09:56:04.660Z,10.92
2023-04-15T09:57:04.720Z,10.79
2023-04-15T09:58:04.723Z,10.58
2023-04-15T09:59:04.749Z,10.57
2023-04-15T10:00:04.753Z,10.69
2023-04-15T10:01:04.865Z,10.98
2023-04-15T10:02:04.913Z,10.98
2023-04-15T10:03:05.143Z,11.05
2023-04-15T10:04:05.303Z,11.02
2023-04-15T10:05:04.991Z,10.86
2023-04-15T10:06:05.037Z,10.98
2023-04-15T10:07:05.079Z,10.90
2023-04-15T10:08:05.127Z,10.95
2023-04-15T10:09:05.164Z,11.10
2023-04-15T10:10:05.220Z,11.10
2023-04-15T10:11:05.456Z,11.18
2023-04-15T10:12:05.266Z,11.23
2023-04-15T10:13:05.241Z,11.30
2023-04-15T10:14:05.258Z,11.45
2023-04-15T10:15:05.279Z,11.55
2023-04-15T10:16:05.381Z,11.15
2023-04-15T10:17:05.360Z,10.77
2023-04-15T10:18:05.452Z,11.02
2023-04-15T10:19:05.398Z,11.13
2023-04-15T10:20:05.583Z,11.00
2023-04-15T10:21:05.435Z,11.01
2023-04-15T10:22:05.518Z,10.95
2023-04-15T10:23:06.892Z,11.16
2023-04-15T10:24:05.584Z,11.38
2023-04-15T10:25:05.639Z,11.43
2023-04-15T10:26:05.657Z,11.43
2023-04-15T10:27:05.712Z,11.38
2023-04-15T10:28:05.767Z,11.44
2023-04-15T10:29:05.752Z,11.44
2023-04-15T10:30:05.813Z,11.49
2023-04-15T10:31:06.825Z,11.48
2023-04-15T10:32:05.955Z,11.27
2023-04-15T10:33:05.964Z,11.18
2023-04-15T10:34:06.021Z,11.12
2023-04-15T10:35:06.039Z,11.16
2023-04-15T10:36:06.116Z,11.26
2023-04-15T10:37:06.163Z,11.25
2023-04-15T10:38:06.129Z,11.26
2023-04-15T10:39:06.159Z,11.10
2023-04-15T10:40:06.159Z,11.01
2023-04-15T10:41:06.162Z,11.05
2023-04-15T10:42:06.150Z,11.23
2023-04-15T10:43:06.165Z,11.33
2023-04-15T10:44:06.279Z,11.31
2023-04-15T10:45:06.230Z,11.37
2023-04-15T10:46:06.297Z,11.41
2023-04-15T10:47:06.321Z,11.51
2023-04-15T10:48:06.404Z,11.44
2023-04-15T10:49:06.422Z,11.48
2023-04-15T10:50:06.427Z,11.38
2023-04-15T10:51:06.481Z,11.31
2023-04-15T10:52:06.549Z,11.31
2023-04-15T10:53:06.713Z,11.37
2023-04-15T10:54:06.899Z,11.38
2023-04-15T10:55:06.766Z,11.41
2023-04-15T10:56:06.658Z,11.23
2023-04-15T10:57:06.713Z,11.25
2023-04-15T10:58:06.765Z,11.43
2023-04-15T10:59:06.694Z,11.26
2023-04-15T11:00:06.778Z,11.35
2023-04-15T11:01:06.843Z,11.23
2023-04-15T11:02:07.022Z,11.04
2023-04-15T11:03:07.211Z,11.25
2023-04-15T11:04:07.313Z,11.41
2023-04-15T11:05:07.068Z,11.56
2023-04-15T11:06:07.050Z,11.44
2023-04-15T11:07:07.087Z,11.31
2023-04-15T11:08:07.060Z,11.10
2023-04-15T11:09:07.135Z,11.27
2023-04-15T11:10:07.162Z,11.53
2023-04-15T11:11:07.227Z,11.58
2023-04-15T11:12:07.208Z,11.68
2023-04-15T11:13:07.242Z,11.81
2023-04-15T11:14:07.268Z,11.62
2023-04-15T11:15:07.289Z,11.44
2023-04-15T11:16:07.334Z,11.43
2023-04-15T11:17:07.317Z,11.26
2023-04-15T11:18:07.393Z,11.34
2023-04-15T11:19:07.371Z,11.49
2023-04-15T11:20:07.378Z,11.58
2023-04-15T11:21:07.449Z,11.45
2023-04-15T11:22:07.523Z,11.19
2023-04-15T11:23:14.349Z,11.25
2023-04-15T11:24:07.806Z,11.40
2023-04-15T11:25:07.544Z,11.58
2023-04-15T11:26:07.613Z,11.52
2023-04-15T11:27:07.670Z,11.60
2023-04-15T11:28:07.659Z,11.53
2023-04-15T11:29:07.661Z,11.44
2023-04-15T11:30:07.694Z,11.35
2023-04-15T11:31:08.637Z,11.45
2023-04-15T11:32:07.796Z,11.65
2023-04-15T11:33:07.756Z,11.74
2023-04-15T11:34:07.822Z,11.73
2023-04-15T11:35:07.753Z,11.53
2023-04-15T11:36:07.825Z,11.70
2023-04-15T11:37:07.871Z,11.67
2023-04-15T11:38:07.897Z,11.45
2023-04-15T11:39:07.910Z,11.38
2023-04-15T11:40:08.079Z,11.51
2023-04-15T11:41:09.202Z,11.58
2023-04-15T11:42:07.936Z,11.56
2023-04-15T11:43:07.954Z,11.73
2023-04-15T11:44:07.961Z,11.68
2023-04-15T11:45:07.997Z,11.68
2023-04-15T11:46:08.059Z,11.89
2023-04-15T11:47:08.037Z,11.80
2023-04-15T11:48:08.072Z,11.88
2023-04-15T11:49:08.100Z,11.97
2023-04-15T11:50:08.117Z,11.95
2023-04-15T11:51:08.138Z,11.73
2023-04-15T11:52:08.132Z,11.35
2023-04-15T11:53:08.652Z,11.59
2023-04-15T11:54:08.218Z,11.67
2023-04-15T11:55:08.265Z,11.73
2023-04-15T11:56:08.271Z,11.60
2023-04-15T11:57:08.257Z,11.71
2023-04-15T11:58:08.289Z,11.77
2023-04-15T11:59:08.297Z,11.70
2023-04-15T12:00:08.302Z,11.53
2023-04-15T12:01:08.333Z,11.44
2023-04-15T12:02:08.526Z,11.49
2023-04-15T12:03:08.580Z,11.51
2023-04-15T12:04:08.684Z,11.55
2023-04-15T12:05:08.480Z,11.63
2023-04-15T12:06:08.462Z,11.88
2023-04-15T12:07:08.482Z,11.95
2023-04-15T12:08:08.481Z,12.15
2023-04-15T12:09:08.496Z,12.17
2023-04-15T12:10:08.511Z,12.20
2023-04-15T12:11:08.525Z,11.96
2023-04-15T12:12:08.548Z,11.81
2023-04-15T12:13:08.531Z,11.73
2023-04-15T12:14:08.542Z,11.77
2023-04-15T12:15:08.551Z,11.76
2023-04-15T12:16:08.587Z,11.71
2023-04-15T12:17:08.587Z,11.65
2023-04-15T12:18:08.667Z,11.67
2023-04-15T12:19:08.656Z,11.51
2023-04-15T12:20:08.697Z,11.49
2023-04-15T12:21:08.705Z,11.55
2023-04-15T12:22:08.699Z,11.55
2023-04-15T12:23:08.729Z,11.70
2023-04-15T12:24:08.765Z,11.86
2023-04-15T12:25:08.816Z,11.81
2023-04-15T12:26:08.820Z,11.91
2023-04-15T12:27:08.861Z,11.95
2023-04-15T12:28:08.852Z,11.97
2023-04-15T12:29:08.846Z,11.86
2023-04-15T12:30:08.854Z,11.91
2023-04-15T12:31:08.909Z,11.88
2023-04-15T12:32:08.966Z,11.78
2023-04-15T12:33:09.055Z,11.83
2023-04-15T12:34:09.066Z,11.76
2023-04-15T12:35:09.092Z,11.73
2023-04-15T12:36:09.101Z,11.53
2023-04-15T12:37:09.157Z,11.49
2023-04-15T12:38:09.171Z,11.49
2023-04-15T12:39:09.195Z,11.52
2023-04-15T12:40:09.240Z,11.43
2023-04-15T12:41:09.273Z,11.53
2023-04-15T12:42:09.282Z,11.58
2023-04-15T12:43:09.320Z,11.60
2023-04-15T12:44:09.362Z,11.73
2023-04-15T12:45:09.351Z,11.63
2023-04-15T12:46:09.452Z,11.70
2023-04-15T12:47:09.499Z,11.78
2023-04-15T12:48:09.493Z,11.99
2023-04-15T12:49:09.506Z,12.10
2023-04-15T12:50:09.554Z,12.14
2023-04-15T12:51:09.564Z,11.96
2023-04-15T12:52:09.590Z,12.10
2023-04-15T12:53:09.632Z,11.97
2023-04-15T12:54:09.656Z,11.77
2023-04-15T12:55:09.664Z,11.96
2023-04-15T12:56:09.671Z,11.93
2023-04-15T12:57:09.705Z,11.89
2023-04-15T12:58:09.797Z,11.96
2023-04-15T12:59:09.691Z,12.12
2023-04-15T13:00:09.698Z,12.18
2023-04-15T13:01:09.704Z,11.97
2023-04-15T13:02:09.853Z,11.83
2023-04-15T13:03:09.922Z,11.86